createdAt,value
2023-02-24T00:01:37.797Z,250.00
2023-02-24T00:04:08.321Z,247.15
2023-02-24T00:06:40.110Z,247.25
2023-02-24T00:09:09.996Z,257.83
2023-02-24T00:11:39.149Z,254.67
2023-02-24T00:14:09.282Z,236.17
2023-02-24T00:16:38.131Z,241.23
2023-02-24T00:19:07.386Z,240.30
2023-02-24T00:21:36.716Z,238.73
2023-02-24T00:24:04.431Z,231.55
2023-02-24T00:26:32.077Z,240.73
2023-02-24T00:29:03.324Z,239.13
2023-02-24T00:31:34.497Z,237.83
2023-02-24T00:34:03.394Z,232.83
2023-02-24T00:36:34.546Z,235.23
2023-02-24T00:39:09.149Z,228.47
2023-02-24T00:41:38.365Z,252.70
2023-02-24T00:44:09.099Z,230.90
2023-02-24T00:46:40.155Z,219.10
2023-02-24T00:49:10.507Z,239.27
2023-02-24T00:51:41.106Z,232.23
2023-02-24T00:54:10.209Z,223.53
2023-02-24T00:56:37.983Z,240.13
2023-02-24T00:59:05.641Z,236.97
2023-02-24T01:01:35.032Z,247.03
2023-02-24T01:04:11.336Z,234.80
2023-02-24T01:06:41.358Z,224.90
2023-02-24T01:09:12.005Z,235.00
2023-02-24T01:11:57.958Z,213.90
2023-02-24T01:14:28.305Z,228.87
2023-02-24T01:16:56.907Z,221.93
2023-02-24T01:19:31.359Z,234.20
2023-02-24T01:22:02.595Z,228.53
2023-02-24T01:24:33.159Z,225.67
2023-02-24T01:27:00.820Z,226.47
2023-02-24T01:29:29.036Z,216.63
2023-02-24T01:31:58.187Z,217.13
2023-02-24T01:34:28.693Z,227.20
2023-02-24T01:36:58.498Z,216.40
2023-02-24T01:39:26.162Z,211.17
2023-02-24T01:41:53.906Z,228.03
2023-02-24T01:45:04.106Z,210.50
2023-02-24T01:47:32.602Z,213.33
2023-02-24T01:50:02.981Z,206.17
2023-02-24T01:52:35.102Z,225.73
2023-02-24T01:55:08.311Z,229.33
2023-02-24T01:57:39.653Z,227.23
2023-02-24T02:00:11.849Z,227.27
2023-02-24T02:02:47.389Z,215.50
2023-02-24T02:05:16.799Z,221.20
2023-02-24T02:07:48.325Z,229.53
2023-02-24T02:10:18.723Z,220.40
2023-02-24T02:12:47.136Z,228.37
2023-02-24T02:15:20.140Z,228.80
2023-02-24T02:17:55.848Z,225.10
2023-02-24T02:20:53.750Z,231.43
2023-02-24T02:23:54.899Z,220.30
2023-02-24T02:26:47.270Z,223.73
2023-02-24T02:29:37.180Z,197.40
2023-02-24T02:32:25.189Z,216.63
2023-02-24T02:34:58.276Z,207.47
2023-02-24T02:37:33.326Z,221.40
2023-02-24T02:40:15.425Z,234.03
2023-02-24T02:42:47.624Z,215.13
2023-02-24T02:45:20.976Z,220.30
2023-02-24T02:47:53.783Z,233.87
2023-02-24T02:50:28.920Z,226.93
2023-02-24T02:52:59.350Z,214.50
2023-02-24T02:55:34.914Z,232.47
2023-02-24T02:58:04.872Z,215.00
2023-02-24T03:00:36.996Z,216.50
2023-02-24T03:03:08.599Z,228.70
2023-02-24T03:05:46.872Z,224.47
2023-02-24T03:08:18.125Z,229.37
2023-02-24T03:10:51.063Z,222.33
2023-02-24T03:13:22.242Z,221.13
2023-02-24T03:15:52.832Z,222.20
2023-02-24T03:18:28.938Z,212.83
2023-02-24T03:21:07.495Z,234.67
2023-02-24T03:23:38.715Z,217.30
2023-02-24T03:26:18.760Z,222.87
2023-02-24T03:28:59.181Z,233.60
2023-02-24T03:31:34.422Z,216.47
2023-02-24T03:34:08.193Z,221.37
2023-02-24T03:36:37.595Z,221.63
2023-02-24T03:39:11.325Z,217.73
2023-02-24T03:41:50.673Z,213.90
2023-02-24T03:44:18.949Z,219.97
2023-02-24T03:46:46.782Z,208.03
2023-02-24T03:49:17.221Z,231.37
2023-02-24T03:52:08.640Z,222.27
2023-02-24T03:55:01.094Z,219.20
2023-02-24T03:57:54.674Z,221.73
2023-02-24T04:00:36.755Z,203.20
2023-02-24T04:03:15.200Z,214.80
2023-02-24T04:05:48.200Z,209.27
2023-02-24T04:08:20.155Z,225.03
2023-02-24T04:10:55.513Z,219.83
2023-02-24T04:13:35.273Z,215.07
2023-02-24T04:16:16.907Z,223.13
2023-02-24T04:18:50.409Z,217.40
2023-02-24T04:21:22.071Z,215.10
2023-02-24T04:23:53.145Z,212.10
2023-02-24T04:26:22.455Z,218.83
2023-02-24T04:28:50.791Z,216.40
2023-02-24T04:31:21.804Z,212.40
2023-02-24T04:33:53.213Z,219.47
2023-02-24T04:36:27.206Z,216.43
2023-02-24T04:38:56.268Z,223.90
2023-02-24T04:41:24.636Z,223.47
2023-02-24T04:43:52.545Z,222.60
2023-02-24T04:46:21.005Z,217.57
2023-02-24T04:48:48.634Z,215.07
2023-02-24T04:51:16.655Z,226.77
2023-02-24T04:53:44.337Z,230.63
2023-02-24T04:56:13.327Z,224.40
2023-02-24T04:58:42.615Z,229.73
2023-02-24T05:01:11.651Z,210.07
2023-02-24T05:03:42.441Z,209.03
2023-02-24T05:06:15.909Z,227.63
2023-02-24T05:08:44.854Z,225.33
2023-02-24T05:11:16.870Z,205.00
2023-02-24T05:13:46.343Z,214.07
2023-02-24T05:16:16.959Z,205.43
2023-02-24T05:18:45.477Z,228.13
2023-02-24T05:21:32.879Z,219.17
2023-02-24T05:24:06.290Z,231.27
2023-02-24T05:26:37.452Z,220.43
2023-02-24T05:29:07.016Z,216.53
2023-02-24T05:31:36.888Z,213.90
2023-02-24T05:34:07.570Z,226.63
2023-02-24T05:36:39.037Z,223.63
2023-02-24T05:39:08.041Z,217.47
2023-02-24T05:41:39.277Z,215.63
2023-02-24T05:44:09.315Z,215.73
2023-02-24T05:46:38.710Z,215.83
2023-02-24T05:49:09.536Z,217.07
2023-02-24T05:51:39.082Z,210.93
2023-02-24T05:54:08.934Z,219.73
2023-02-24T05:56:40.177Z,204.27
2023-02-24T05:59:10.721Z,211.10
2023-02-24T06:01:41.309Z,203.00
2023-02-24T06:04:10.584Z,201.93
2023-02-24T06:06:39.830Z,209.43
2023-02-24T06:09:10.648Z,206.53
2023-02-24T06:11:41.560Z,203.50
2023-02-24T06:14:10.446Z,187.43
2023-02-24T06:16:40.730Z,197.73
2023-02-24T06:19:10.437Z,202.30
2023-02-24T06:21:41.192Z,205.43
2023-02-24T06:24:14.354Z,200.37
2023-02-24T06:26:44.243Z,194.80
2023-02-24T06:29:15.716Z,214.30
2023-02-24T06:31:43.983Z,196.57
2023-02-24T06:34:13.279Z,199.17
2023-02-24T06:36:43.018Z,206.97
2023-02-24T06:39:14.403Z,194.73
2023-02-24T06:41:43.494Z,203.97
2023-02-24T06:44:11.157Z,200.70
2023-02-24T06:46:38.780Z,203.27
2023-02-24T06:49:07.409Z,212.20
2023-02-24T06:51:34.993Z,211.43
2023-02-24T06:54:02.737Z,213.73
2023-02-24T06:56:32.350Z,219.00
2023-02-24T06:59:01.542Z,212.33
2023-02-24T07:01:29.950Z,209.30
2023-02-24T07:04:18.882Z,193.90
2023-02-24T07:06:49.399Z,204.83
2023-02-24T07:09:18.679Z,219.23
2023-02-24T07:11:51.952Z,217.63
2023-02-24T07:14:22.263Z,206.70
2023-02-24T07:16:54.052Z,218.90
2023-02-24T07:19:23.947Z,213.37
2023-02-24T07:21:52.670Z,208.30
2023-02-24T07:24:25.771Z,222.33
2023-02-24T07:26:57.967Z,231.43
2023-02-24T07:29:30.346Z,218.97
2023-02-24T07:32:01.398Z,224.90
2023-02-24T07:34:29.250Z,221.73
2023-02-24T07:36:57.595Z,217.47
2023-02-24T07:39:25.722Z,232.70
2023-02-24T07:41:59.836Z,224.60
2023-02-24T07:44:29.374Z,219.40
2023-02-24T07:46:59.091Z,224.90
2023-02-24T07:49:29.975Z,221.17
2023-02-24T07:51:58.061Z,228.43
2023-02-24T07:54:29.878Z,219.27
2023-02-24T07:56:59.489Z,222.37
2023-02-24T07:59:30.675Z,214.70
2023-02-24T08:01:58.539Z,226.00
2023-02-24T08:04:28.483Z,219.20
2023-02-24T08:06:58.787Z,208.67
2023-02-24T08:09:48.136Z,237.87
2023-02-24T08:12:18.731Z,190.00
2023-02-24T08:14:50.735Z,225.00
2023-02-24T08:17:19.941Z,222.23
2023-02-24T08:19:48.819Z,216.23
2023-02-24T08:22:20.383Z,222.07
2023-02-24T08:24:50.113Z,212.77
2023-02-24T08:27:20.039Z,202.73
2023-02-24T08:29:59.882Z,211.97
2023-02-24T08:32:33.576Z,224.07
2023-02-24T08:35:04.718Z,202.07
2023-02-24T08:37:40.409Z,209.85
2023-02-24T08:40:33.220Z,219.83
2023-02-24T08:43:16.042Z,218.30
2023-02-24T08:45:47.060Z,211.90
2023-02-24T08:48:32.182Z,218.83
2023-02-24T08:51:02.426Z,206.30
2023-02-24T08:53:31.597Z,225.63
2023-02-24T08:56:00.929Z,217.13
2023-02-24T08:58:28.573Z,222.30
2023-02-24T09:00:59.763Z,214.25
2023-02-24T09:03:29.467Z,201.85
2023-02-24T09:06:04.504Z,225.73
2023-02-24T09:08:34.707Z,210.25
2023-02-24T09:11:07.712Z,217.90
2023-02-24T09:13:37.364Z,208.10
2023-02-24T09:16:07.036Z,225.87
2023-02-24T09:18:39.190Z,193.03
2023-02-24T09:21:37.213Z,210.57
2023-02-24T09:24:07.650Z,192.98
2023-02-24T09:26:43.112Z,196.93
2023-02-24T09:29:33.506Z,209.10
2023-02-24T09:32:05.947Z,216.02
2023-02-24T09:34:35.261Z,212.75
2023-02-24T09:37:03.836Z,229.95
2023-02-24T09:39:55.398Z,233.68
2023-02-24T09:42:34.379Z,221.02
2023-02-24T09:45:11.277Z,232.65
2023-02-24T09:47:56.922Z,241.40
2023-02-24T09:51:02.231Z,255.63
2023-02-24T09:53:41.349Z,248.68
2023-02-24T09:56:17.619Z,259.77
2023-02-24T10:01:43.117Z,266.90
2023-02-24T10:04:28.698Z,268.02
2023-02-24T10:07:03.941Z,271.17
2023-02-24T10:09:35.332Z,282.50
2023-02-24T10:12:11.614Z,278.05
2023-02-24T10:14:51.295Z,268.50
2023-02-24T10:17:24.327Z,282.23
2023-02-24T10:20:00.114Z,290.48
2023-02-24T10:22:50.337Z,276.15
2023-02-24T10:25:36.095Z,266.65
2023-02-24T10:28:20.008Z,262.20
2023-02-24T10:31:03.968Z,263.55
2023-02-24T10:33:38.834Z,251.95
2023-02-24T10:36:11.529Z,269.75
2023-02-24T10:38:45.276Z,268.70
2023-02-24T10:41:15.486Z,271.25
2023-02-24T10:43:55.871Z,289.58
2023-02-24T10:46:41.177Z,276.30
2023-02-24T10:49:16.197Z,265.17
2023-02-24T10:51:53.064Z,273.92
2023-02-24T10:54:54.792Z,278.35
2023-02-24T10:57:38.288Z,249.23
2023-02-24T11:00:51.708Z,259.63
2023-02-24T11:03:35.731Z,255.45
2023-02-24T11:06:20.237Z,261.48
2023-02-24T11:09:18.736Z,267.08
2023-02-24T11:12:05.683Z,257.75
2023-02-24T11:15:05.997Z,256.17
2023-02-24T11:17:33.792Z,249.00
2023-02-24T11:20:10.760Z,263.52
2023-02-24T11:22:41.560Z,260.67
2023-02-24T11:25:24.832Z,262.67
2023-02-24T11:27:55.352Z,259.77
2023-02-24T11:30:32.784Z,263.42
2023-02-24T11:33:15.265Z,265.50
2023-02-24T11:35:54.741Z,267.73
2023-02-24T11:38:33.394Z,269.33
2023-02-24T11:41:09.469Z,265.45
2023-02-24T11:43:43.295Z,249.98
2023-02-24T11:46:16.060Z,253.25
2023-02-24T11:48:47.977Z,272.08
2023-02-24T11:51:21.003Z,257.73
2023-02-24T11:53:52.070Z,257.70
2023-02-24T11:56:26.198Z,250.85
2023-02-24T11:58:58.348Z,246.95
2023-02-24T12:01:31.002Z,245.68
2023-02-24T12:04:07.465Z,236.02
2023-02-24T12:06:42.339Z,261.23
2023-02-24T12:09:16.860Z,225.63
2023-02-24T12:11:54.859Z,247.10
2023-02-24T12:14:29.677Z,253.27
2023-02-24T12:17:04.255Z,239.50
2023-02-24T12:19:39.244Z,233.27
2023-02-24T12:22:14.786Z,236.63
2023-02-24T12:24:47.201Z,238.00
2023-02-24T12:27:25.868Z,251.18
2023-02-24T12:30:22.683Z,240.30
2023-02-24T12:32:59.348Z,239.75
2023-02-24T12:35:39.440Z,248.15
2023-02-24T12:38:22.346Z,253.75
2023-02-24T12:40:58.520Z,246.80
2023-02-24T12:43:36.393Z,242.10
2023-02-24T12:46:08.415Z,236.35
2023-02-24T12:48:59.962Z,243.57
2023-02-24T12:51:34.902Z,244.25
2023-02-24T12:54:13.440Z,243.02
2023-02-24T12:56:52.890Z,245.68
2023-02-24T12:59:27.323Z,241.32
2023-02-24T13:02:00.560Z,243.15
2023-02-24T13:04:40.116Z,242.05
2023-02-24T13:07:20.057Z,231.52
2023-02-24T13:09:55.034Z,236.98
2023-02-24T13:12:28.153Z,250.52
2023-02-24T13:14:57.405Z,242.30
2023-02-24T13:17:26.938Z,240.65
2023-02-24T13:19:56.693Z,240.07
2023-02-24T13:22:28.671Z,252.20
2023-02-24T13:25:15.309Z,247.00
2023-02-24T13:27:43.914Z,231.07
2023-02-24T13:30:30.314Z,218.00
2023-02-24T13:33:05.317Z,204.15
2023-02-24T13:35:36.316Z,214.85
2023-02-24T13:38:22.609Z,198.88
2023-02-24T13:40:50.703Z,201.70
2023-02-24T13:43:26.763Z,215.98
2023-02-24T13:46:01.379Z,198.95
2023-02-24T13:48:55.950Z,216.57
2023-02-24T13:51:56.987Z,193.75
2023-02-24T13:54:41.754Z,184.65
2023-02-24T13:57:40.434Z,187.90
2023-02-24T14:00:21.789Z,186.77
2023-02-24T14:02:53.315Z,170.82
2023-02-24T14:05:24.853Z,170.50
2023-02-24T14:07:54.080Z,184.02
2023-02-24T14:10:25.068Z,194.70
2023-02-24T14:13:09.016Z,189.15
2023-02-24T14:15:36.915Z,174.90
2023-02-24T14:18:06.893Z,181.43
2023-02-24T14:20:37.470Z,180.52
2023-02-24T14:23:22.078Z,173.18
2023-02-24T14:25:55.463Z,179.32
2023-02-24T14:28:25.913Z,183.02
2023-02-24T14:30:58.098Z,188.50
2023-02-24T14:33:31.140Z,179.77
2023-02-24T14:35:59.318Z,187.80
2023-02-24T14:38:32.631Z,194.00
2023-02-24T14:41:00.579Z,183.50
2023-02-24T14:43:28.296Z,188.98
2023-02-24T14:45:57.590Z,183.80
2023-02-24T14:48:28.681Z,174.32
2023-02-24T14:51:02.067Z,175.98
2023-02-24T14:53:32.400Z,181.55
2023-02-24T14:56:05.810Z,158.60
2023-02-24T14:58:43.790Z,169.55
2023-02-24T15:01:20.282Z,162.40
2023-02-24T15:03:51.986Z,147.35
2023-02-24T15:06:24.926Z,155.45
2023-02-24T15:08:59.131Z,149.00
2023-02-24T15:11:29.491Z,146.32
2023-02-24T15:14:00.111Z,144.55
2023-02-24T15:16:30.704Z,141.27
2023-02-24T15:19:02.185Z,144.95
2023-02-24T15:21:34.405Z,127.47
2023-02-24T15:24:04.274Z,127.78
2023-02-24T15:26:34.446Z,128.50
2023-02-24T15:29:04.442Z,132.13
2023-02-24T15:31:32.306Z,123.32
2023-02-24T15:34:03.638Z,119.93
2023-02-24T15:36:34.615Z,128.15
2023-02-24T15:39:05.388Z,126.47
2023-02-24T15:41:41.794Z,119.97
2023-02-24T15:44:25.963Z,131.27
2023-02-24T15:46:53.688Z,122.43
2023-02-24T15:49:22.758Z,122.70
2023-02-24T15:51:53.025Z,131.60
2023-02-24T15:54:26.038Z,115.10
2023-02-24T15:56:53.731Z,113.75
2023-02-24T15:59:22.398Z,118.20
2023-02-24T16:01:51.796Z,110.95
2023-02-24T16:04:21.655Z,115.90
2023-02-24T16:06:55.157Z,120.32
2023-02-24T16:09:29.412Z,110.05
2023-02-24T16:11:57.737Z,124.43
2023-02-24T16:14:26.056Z,123.07
2023-02-24T16:16:53.763Z,121.50
2023-02-24T16:19:21.444Z,121.57
2023-02-24T16:21:50.459Z,116.47
2023-02-24T16:24:19.554Z,114.70
2023-02-24T16:26:48.811Z,113.38
2023-02-24T16:29:17.100Z,120.88
2023-02-24T16:31:44.955Z,117.85
2023-02-24T16:34:16.196Z,121.88
2023-02-24T16:36:44.002Z,125.20
2023-02-24T16:39:13.844Z,123.93
2023-02-24T16:41:41.973Z,117.55
2023-02-24T16:44:10.527Z,125.90
2023-02-24T16:46:41.089Z,122.10
2023-02-24T16:49:10.727Z,126.77
2023-02-24T16:51:39.026Z,120.95
2023-02-24T16:54:06.952Z,128.73
2023-02-24T16:56:35.888Z,136.57
2023-02-24T16:59:03.578Z,141.60
2023-02-24T17:01:31.967Z,136.23
2023-02-24T17:03:59.718Z,148.80
2023-02-24T17:06:28.193Z,140.10
2023-02-24T17:08:56.244Z,145.73
2023-02-24T17:11:30.132Z,160.82
2023-02-24T17:13:59.089Z,143.07
2023-02-24T17:16:26.785Z,144.87
2023-02-24T17:18:54.795Z,149.90
2023-02-24T17:21:22.448Z,151.88
2023-02-24T17:23:51.204Z,146.53
2023-02-24T17:26:18.883Z,151.77
2023-02-24T17:28:46.715Z,154.27
2023-02-24T17:31:15.717Z,141.87
2023-02-24T17:33:43.386Z,145.33
2023-02-24T17:36:11.213Z,136.80
2023-02-24T17:38:38.925Z,130.33
2023-02-24T17:41:06.497Z,129.63
2023-02-24T17:43:34.179Z,121.30
2023-02-24T17:46:05.851Z,117.57
2023-02-24T17:48:36.276Z,107.37
2023-02-24T17:51:04.115Z,115.73
2023-02-24T17:53:32.208Z,106.07
2023-02-24T17:56:03.931Z,111.60
2023-02-24T17:58:31.775Z,97.57
2023-02-24T18:01:01.765Z,99.20
2023-02-24T18:03:29.672Z,95.90
2023-02-24T18:06:03.546Z,103.70
2023-02-24T18:08:33.327Z,97.30
2023-02-24T18:11:01.280Z,102.10
2023-02-24T18:13:30.344Z,100.20
2023-02-24T18:15:58.406Z,105.03
2023-02-24T18:18:27.080Z,110.33
2023-02-24T18:20:58.516Z,112.50
2023-02-24T18:23:27.701Z,112.87
2023-02-24T18:25:55.360Z,133.23
2023-02-24T18:28:23.021Z,131.83
2023-02-24T18:30:50.697Z,145.73
2023-02-24T18:33:18.552Z,169.40
2023-02-24T18:35:46.334Z,180.57
2023-02-24T18:38:13.946Z,173.67
2023-02-24T18:40:42.895Z,186.60
2023-02-24T18:43:10.484Z,196.57
2023-02-24T18:45:38.134Z,185.30
2023-02-24T18:48:06.787Z,183.53
2023-02-24T18:50:34.413Z,186.63
2023-02-24T18:53:02.075Z,182.87
2023-02-24T18:55:29.842Z,171.03
2023-02-24T18:57:58.871Z,193.50
2023-02-24T19:00:26.699Z,199.10
2023-02-24T19:02:54.358Z,174.53
2023-02-24T19:05:22.096Z,162.90
2023-02-24T19:07:49.672Z,191.57
2023-02-24T19:10:17.988Z,167.33
2023-02-24T19:12:46.978Z,170.80
2023-02-24T19:15:17.644Z,175.07
2023-02-24T19:17:45.591Z,176.43
2023-02-24T19:20:14.768Z,168.07
2023-02-24T19:22:42.514Z,157.07
2023-02-24T19:25:10.239Z,162.00
2023-02-24T19:27:37.804Z,163.03
2023-02-24T19:30:06.433Z,167.33
2023-02-24T19:32:35.594Z,163.20
2023-02-24T19:35:03.305Z,163.30
2023-02-24T19:37:30.959Z,160.67
2023-02-24T19:39:58.569Z,150.57
2023-02-24T19:42:26.459Z,156.73
2023-02-24T19:44:54.149Z,159.30
2023-02-24T19:47:21.766Z,159.33
2023-02-24T19:49:50.837Z,160.10
2023-02-24T19:52:18.483Z,159.43
2023-02-24T19:54:46.168Z,157.63
2023-02-24T19:57:13.791Z,157.13
2023-02-24T19:59:41.405Z,166.03
2023-02-24T20:02:10.694Z,163.53
2023-02-24T20:04:38.346Z,182.37
2023-02-24T20:07:07.501Z,176.57
2023-02-24T20:09:35.225Z,171.33
2023-02-24T20:12:02.946Z,177.83
2023-02-24T20:14:30.995Z,168.50
2023-02-24T20:16:58.659Z,176.20
2023-02-24T20:19:26.375Z,170.63
2023-02-24T20:21:54.036Z,171.60
2023-02-24T20:24:22.999Z,177.23
2023-02-24T20:26:51.198Z,178.17
2023-02-24T20:29:20.809Z,186.37
2023-02-24T20:31:49.157Z,175.40
2023-02-24T20:34:17.778Z,174.83
2023-02-24T20:36:45.561Z,172.77
2023-02-24T20:39:13.344Z,173.50
2023-02-24T20:41:42.410Z,175.10
2023-02-24T20:44:10.719Z,188.53
2023-02-24T20:46:38.852Z,181.30
2023-02-24T20:49:09.024Z,179.43
2023-02-24T20:51:38.148Z,179.30
2023-02-24T20:54:12.675Z,168.03
2023-02-24T20:56:43.545Z,171.80
2023-02-24T20:59:13.935Z,174.00
2023-02-24T21:01:42.261Z,165.63
2023-02-24T21:04:10.258Z,166.50
2023-02-24T21:06:38.168Z,164.60
2023-02-24T21:09:06.435Z,167.83
2023-02-24T21:11:34.363Z,174.20
2023-02-24T21:14:04.131Z,162.23
2023-02-24T21:16:31.765Z,157.27
2023-02-24T21:18:59.367Z,161.17
2023-02-24T21:21:27.702Z,149.97
2023-02-24T21:23:56.162Z,155.43
2023-02-24T21:26:26.650Z,158.07
2023-02-24T21:28:57.630Z,153.23
2023-02-24T21:31:27.767Z,147.10
2023-02-24T21:33:56.219Z,150.17
2023-02-24T21:36:25.693Z,148.77
2023-02-24T21:38:54.375Z,138.33
2023-02-24T21:41:22.409Z,158.13
2023-02-24T21:43:54.594Z,152.70
2023-02-24T21:46:22.825Z,153.97
2023-02-24T21:48:56.128Z,150.33
2023-02-24T21:51:24.782Z,147.63
2023-02-24T21:53:54.840Z,151.73
2023-02-24T21:56:25.111Z,148.40
2023-02-24T21:58:54.873Z,153.47
2023-02-24T22:01:24.775Z,144.83
2023-02-24T22:03:55.692Z,154.80
2023-02-24T22:06:24.422Z,146.07
2023-02-24T22:08:52.142Z,151.33
2023-02-24T22:11:20.239Z,138.97
2023-02-24T22:13:48.460Z,145.90
2023-02-24T22:16:18.975Z,144.83
2023-02-24T22:18:47.412Z,153.17
2023-02-24T22:21:18.691Z,144.10
2023-02-24T22:23:47.536Z,153.13
2023-02-24T22:26:16.630Z,154.13
2023-02-24T22:28:46.619Z,150.23
2023-02-24T22:31:16.247Z,161.97
2023-02-24T22:33:44.296Z,149.63
2023-02-24T22:36:14.072Z,148.93
2023-02-24T22:38:45.524Z,157.17
2023-02-24T22:41:14.876Z,147.47
2023-02-24T22:43:42.562Z,148.43
2023-02-24T22:46:14.645Z,150.17
2023-02-24T22:48:42.458Z,146.47
2023-02-24T22:51:11.507Z,158.93
2023-02-24T22:53:40.845Z,153.77
2023-02-24T22:56:13.385Z,149.87
2023-02-24T22:58:41.744Z,162.10
2023-02-24T23:01:10.630Z,148.63
2023-02-24T23:03:39.965Z,158.13
2023-02-24T23:06:09.817Z,157.33
2023-02-24T23:08:39.006Z,156.93
2023-02-24T23:11:08.911Z,162.10
2023-02-24T23:13:38.257Z,156.67
2023-02-24T23:16:07.960Z,148.17
2023-02-24T23:18:36.829Z,158.23
2023-02-24T23:21:06.876Z,151.73
2023-02-24T23:23:34.900Z,137.97
2023-02-24T23:26:02.706Z,141.77
2023-02-24T23:28:30.424Z,145.43
2023-02-24T23:30:59.415Z,139.83
2023-02-24T23:33:28.090Z,143.07
2023-02-24T23:35:55.980Z,136.40
2023-02-24T23:38:23.602Z,137.93
2023-02-24T23:40:51.830Z,137.97
2023-02-24T23:43:19.628Z,134.07
2023-02-24T23:45:47.334Z,133.80
2023-02-24T23:48:16.337Z,136.33
2023-02-24T23:50:45.812Z,130.07
2023-02-24T23:53:13.444Z,138.60
2023-02-24T23:55:41.083Z,127.97
2023-02-24T23:58:09.169Z,143.80
